sensor_id;sensor_type;location;lat;lon;timestamp;P1;durP1;ratioP1;P2;durP2;ratioP2
27209;SDS011;14721;42.668;23.386;2024-02-21T00:01:38;6.57;;;2.97;;
27209;SDS011;14721;42.668;23.386;2024-02-21T00:04:04;7.77;;;4.67;;
27209;SDS011;14721;42.668;23.386;2024-02-21T00:06:41;8.43;;;3.63;;
27209;SDS011;14721;42.668;23.386;2024-02-21T00:09:27;6.90;;;3.40;;
27209;SDS011;14721;42.668;23.386;2024-02-21T00:11:55;7.13;;;3.70;;
27209;SDS011;14721;42.668;23.386;2024-02-21T00:14:30;6.23;;;3.67;;
27209;SDS011;14721;42.668;23.386;2024-02-21T00:17:01;7.73;;;3.60;;
27209;SDS011;14721;42.668;23.386;2024-02-21T00:19:34;7.83;;;3.80;;
27209;SDS011;14721;42.668;23.386;2024-02-21T00:22:00;7.47;;;4.10;;
27209;SDS011;14721;42.668;23.386;2024-02-21T00:24:26;8.13;;;3.77;;
27209;SDS011;14721;42.668;23.386;2024-02-21T00:26:51;5.80;;;2.87;;
27209;SDS011;14721;42.668;23.386;2024-02-21T00:32:05;7.90;;;3.10;;
27209;SDS011;14721;42.668;23.386;2024-02-21T00:34:33;8.20;;;3.70;;
27209;SDS011;14721;42.668;23.386;2024-02-21T00:37:26;8.63;;;3.67;;
27209;SDS011;14721;42.668;23.386;2024-02-21T00:39:52;7.60;;;4.00;;
27209;SDS011;14721;42.668;23.386;2024-02-21T00:42:23;7.27;;;3.47;;
27209;SDS011;14721;42.668;23.386;2024-02-21T00:44:53;8.57;;;3.63;;
27209;SDS011;14721;42.668;23.386;2024-02-21T00:47:21;9.23;;;3.23;;
27209;SDS011;14721;42.668;23.386;2024-02-21T00:49:49;8.57;;;3.87;;
27209;SDS011;14721;42.668;23.386;2024-02-21T00:52:15;6.23;;;3.47;;
27209;SDS011;14721;42.668;23.386;2024-02-21T00:54:40;5.77;;;2.70;;
27209;SDS011;14721;42.668;23.386;2024-02-21T00:57:18;6.53;;;3.23;;
27209;SDS011;14721;42.668;23.386;2024-02-21T00:59:51;6.73;;;3.37;;
27209;SDS011;14721;42.668;23.386;2024-02-21T01:02:34;6.10;;;3.27;;
27209;SDS011;14721;42.668;23.386;2024-02-21T01:05:00;7.20;;;3.87;;
27209;SDS011;14721;42.668;23.386;2024-02-21T01:07:25;6.20;;;3.60;;
27209;SDS011;14721;42.668;23.386;2024-02-21T01:10:07;8.13;;;3.80;;
27209;SDS011;14721;42.668;23.386;2024-02-21T01:12:38;5.73;;;2.90;;
27209;SDS011;14721;42.668;23.386;2024-02-21T01:15:07;6.20;;;3.07;;
27209;SDS011;14721;42.668;23.386;2024-02-21T01:17:45;6.33;;;3.30;;
27209;SDS011;14721;42.668;23.386;2024-02-21T01:20:19;4.87;;;2.50;;
27209;SDS011;14721;42.668;23.386;2024-02-21T01:22:46;6.97;;;3.20;;
27209;SDS011;14721;42.668;23.386;2024-02-21T01:25:11;6.80;;;3.27;;
27209;SDS011;14721;42.668;23.386;2024-02-21T01:27:40;7.10;;;3.13;;
27209;SDS011;14721;42.668;23.386;2024-02-21T01:30:14;7.17;;;4.00;;
27209;SDS011;14721;42.668;23.386;2024-02-21T01:32:40;5.70;;;3.57;;
27209;SDS011;14721;42.668;23.386;2024-02-21T01:35:06;7.30;;;3.23;;
27209;SDS011;14721;42.668;23.386;2024-02-21T01:37:32;7.67;;;3.57;;
27209;SDS011;14721;42.668;23.386;2024-02-21T01:39:58;7.83;;;3.33;;
27209;SDS011;14721;42.668;23.386;2024-02-21T01:42:24;8.73;;;3.67;;
27209;SDS011;14721;42.668;23.386;2024-02-21T01:44:49;8.00;;;3.17;;
27209;SDS011;14721;42.668;23.386;2024-02-21T01:47:16;7.60;;;3.93;;
27209;SDS011;14721;42.668;23.386;2024-02-21T01:49:41;8.67;;;3.47;;
27209;SDS011;14721;42.668;23.386;2024-02-21T01:52:08;7.27;;;4.30;;
27209;SDS011;14721;42.668;23.386;2024-02-21T01:54:35;7.53;;;3.20;;
27209;SDS011;14721;42.668;23.386;2024-02-21T01:57:00;6.27;;;3.17;;
27209;SDS011;14721;42.668;23.386;2024-02-21T01:59:26;8.57;;;4.10;;
27209;SDS011;14721;42.668;23.386;2024-02-21T02:01:52;7.53;;;3.60;;
27209;SDS011;14721;42.668;23.386;2024-02-21T02:04:19;7.37;;;3.50;;
27209;SDS011;14721;42.668;23.386;2024-02-21T02:06:48;7.57;;;3.67;;
27209;SDS011;14721;42.668;23.386;2024-02-21T02:09:15;8.80;;;3.83;;
27209;SDS011;14721;42.668;23.386;2024-02-21T02:11:42;7.10;;;3.57;;
27209;SDS011;14721;42.668;23.386;2024-02-21T02:14:08;10.00;;;4.20;;
27209;SDS011;14721;42.668;23.386;2024-02-21T02:16:49;10.00;;;4.30;;
27209;SDS011;14721;42.668;23.386;2024-02-21T02:19:15;7.97;;;3.90;;
27209;SDS011;14721;42.668;23.386;2024-02-21T02:21:42;9.00;;;4.47;;
27209;SDS011;14721;42.668;23.386;2024-02-21T02:24:20;7.57;;;3.83;;
27209;SDS011;14721;42.668;23.386;2024-02-21T02:26:51;10.33;;;4.90;;
27209;SDS011;14721;42.668;23.386;2024-02-21T02:29:17;9.73;;;5.20;;
27209;SDS011;14721;42.668;23.386;2024-02-21T02:34:41;10.77;;;4.93;;
27209;SDS011;14721;42.668;23.386;2024-02-21T02:37:07;8.87;;;4.40;;
27209;SDS011;14721;42.668;23.386;2024-02-21T02:39:32;11.43;;;5.80;;
27209;SDS011;14721;42.668;23.386;2024-02-21T02:41:58;10.87;;;5.60;;
27209;SDS011;14721;42.668;23.386;2024-02-21T02:44:26;11.50;;;5.20;;
27209;SDS011;14721;42.668;23.386;2024-02-21T02:46:51;10.87;;;5.83;;
27209;SDS011;14721;42.668;23.386;2024-02-21T02:49:17;11.33;;;5.53;;
27209;SDS011;14721;42.668;23.386;2024-02-21T02:51:43;10.43;;;5.23;;
27209;SDS011;14721;42.668;23.386;2024-02-21T02:54:11;11.73;;;5.40;;
27209;SDS011;14721;42.668;23.386;2024-02-21T02:56:41;10.67;;;5.57;;
27209;SDS011;14721;42.668;23.386;2024-02-21T02:59:18;12.73;;;5.73;;
27209;SDS011;14721;42.668;23.386;2024-02-21T03:01:49;11.67;;;5.23;;
27209;SDS011;14721;42.668;23.386;2024-02-21T03:04:17;11.37;;;5.67;;
27209;SDS011;14721;42.668;23.386;2024-02-21T03:06:42;12.37;;;5.63;;
27209;SDS011;14721;42.668;23.386;2024-02-21T03:09:08;8.77;;;5.37;;
27209;SDS011;14721;42.668;23.386;2024-02-21T03:11:37;11.37;;;5.70;;
27209;SDS011;14721;42.668;23.386;2024-02-21T03:14:04;9.57;;;5.50;;
27209;SDS011;14721;42.668;23.386;2024-02-21T03:16:30;7.90;;;5.23;;
27209;SDS011;14721;42.668;23.386;2024-02-21T03:18:55;11.03;;;5.97;;
27209;SDS011;14721;42.668;23.386;2024-02-21T03:21:21;10.77;;;5.63;;
27209;SDS011;14721;42.668;23.386;2024-02-21T03:23:46;12.77;;;6.50;;
27209;SDS011;14721;42.668;23.386;2024-02-21T03:26:14;11.57;;;6.40;;
27209;SDS011;14721;42.668;23.386;2024-02-21T03:28:42;14.70;;;7.00;;
27209;SDS011;14721;42.668;23.386;2024-02-21T03:31:13;10.60;;;5.57;;
27209;SDS011;14721;42.668;23.386;2024-02-21T03:33:42;15.03;;;6.87;;
27209;SDS011;14721;42.668;23.386;2024-02-21T03:36:13;12.67;;;6.33;;
27209;SDS011;14721;42.668;23.386;2024-02-21T03:38:40;13.23;;;6.53;;
27209;SDS011;14721;42.668;23.386;2024-02-21T03:41:06;14.17;;;6.57;;
27209;SDS011;14721;42.668;23.386;2024-02-21T03:43:34;12.23;;;6.03;;
27209;SDS011;14721;42.668;23.386;2024-02-21T03:46:03;13.83;;;7.37;;
27209;SDS011;14721;42.668;23.386;2024-02-21T03:48:32;12.67;;;6.47;;
27209;SDS011;14721;42.668;23.386;2024-02-21T03:50:58;15.80;;;7.93;;
27209;SDS011;14721;42.668;23.386;2024-02-21T03:53:24;14.83;;;6.87;;
27209;SDS011;14721;42.668;23.386;2024-02-21T03:55:49;11.77;;;6.07;;
27209;SDS011;14721;42.668;23.386;2024-02-21T03:58:28;13.93;;;7.37;;
27209;SDS011;14721;42.668;23.386;2024-02-21T04:00:53;15.30;;;7.57;;
27209;SDS011;14721;42.668;23.386;2024-02-21T04:03:24;13.07;;;6.13;;
27209;SDS011;14721;42.668;23.386;2024-02-21T04:05:50;15.83;;;8.07;;
27209;SDS011;14721;42.668;23.386;2024-02-21T04:08:19;13.27;;;6.57;;
27209;SDS011;14721;42.668;23.386;2024-02-21T04:10:44;14.17;;;6.60;;
27209;SDS011;14721;42.668;23.386;2024-02-21T04:13:10;15.70;;;6.67;;
27209;SDS011;14721;42.668;23.386;2024-02-21T04:15:43;17.17;;;7.00;;
27209;SDS011;14721;42.668;23.386;2024-02-21T04:18:08;15.53;;;7.60;;
27209;SDS011;14721;42.668;23.386;2024-02-21T04:20:43;16.63;;;7.37;;
27209;SDS011;14721;42.668;23.386;2024-02-21T04:23:08;13.03;;;6.63;;
27209;SDS011;14721;42.668;23.386;2024-02-21T04:25:34;14.57;;;7.10;;
27209;SDS011;14721;42.668;23.386;2024-02-21T04:28:00;13.07;;;6.27;;
27209;SDS011;14721;42.668;23.386;2024-02-21T04:30:25;15.23;;;7.47;;
27209;SDS011;14721;42.668;23.386;2024-02-21T04:32:51;14.47;;;6.77;;
27209;SDS011;14721;42.668;23.386;2024-02-21T04:35:19;13.57;;;6.97;;
27209;SDS011;14721;42.668;23.386;2024-02-21T04:37:45;14.87;;;6.83;;
27209;SDS011;14721;42.668;23.386;2024-02-21T04:40:10;13.57;;;6.57;;
27209;SDS011;14721;42.668;23.386;2024-02-21T04:42:36;13.40;;;6.57;;
27209;SDS011;14721;42.668;23.386;2024-02-21T04:45:05;12.33;;;6.13;;
27209;SDS011;14721;42.668;23.386;2024-02-21T04:47:31;14.93;;;7.40;;
27209;SDS011;14721;42.668;23.386;2024-02-21T04:49:57;14.17;;;7.57;;
27209;SDS011;14721;42.668;23.386;2024-02-21T04:52:31;16.00;;;7.63;;
27209;SDS011;14721;42.668;23.386;2024-02-21T04:54:57;13.83;;;6.70;;
27209;SDS011;14721;42.668;23.386;2024-02-21T04:57:23;12.23;;;7.20;;
27209;SDS011;14721;42.668;23.386;2024-02-21T04:59:48;16.63;;;7.83;;
27209;SDS011;14721;42.668;23.386;2024-02-21T05:02:14;14.37;;;7.53;;
27209;SDS011;14721;42.668;23.386;2024-02-21T05:04:39;14.33;;;7.40;;
27209;SDS011;14721;42.668;23.386;2024-02-21T05:07:08;13.33;;;6.40;;
27209;SDS011;14721;42.668;23.386;2024-02-21T05:09:36;15.50;;;7.90;;
27209;SDS011;14721;42.668;23.386;2024-02-21T05:12:01;16.90;;;7.77;;
27209;SDS011;14721;42.668;23.386;2024-02-21T05:14:27;15.00;;;7.50;;
27209;SDS011;14721;42.668;23.386;2024-02-21T05:16:53;17.87;;;7.97;;
27209;SDS011;14721;42.668;23.386;2024-02-21T05:19:18;15.30;;;8.17;;
27209;SDS011;14721;42.668;23.386;2024-02-21T05:21:47;17.93;;;8.50;;
27209;SDS011;14721;42.668;23.386;2024-02-21T05:24:12;17.07;;;8.83;;
27209;SDS011;14721;42.668;23.386;2024-02-21T05:26:38;19.27;;;9.23;;
27209;SDS011;14721;42.668;23.386;2024-02-21T05:29:03;15.97;;;9.00;;
27209;SDS011;14721;42.668;23.386;2024-02-21T05:31:42;20.80;;;10.17;;
27209;SDS011;14721;42.668;23.386;2024-02-21T05:34:17;21.03;;;9.83;;
27209;SDS011;14721;42.668;23.386;2024-02-21T05:36:58;20.00;;;9.07;;
27209;SDS011;14721;42.668;23.386;2024-02-21T05:39:37;17.13;;;8.57;;
27209;SDS011;14721;42.668;23.386;2024-02-21T05:42:02;18.23;;;9.60;;
27209;SDS011;14721;42.668;23.386;2024-02-21T05:44:28;20.23;;;9.37;;
27209;SDS011;14721;42.668;23.386;2024-02-21T05:46:53;19.47;;;9.03;;
27209;SDS011;14721;42.668;23.386;2024-02-21T05:49:19;20.33;;;9.80;;
27209;SDS011;14721;42.668;23.386;2024-02-21T05:51:44;23.73;;;11.60;;
27209;SDS011;14721;42.668;23.386;2024-02-21T05:54:10;16.97;;;9.33;;
27209;SDS011;14721;42.668;23.386;2024-02-21T05:56:35;19.53;;;9.73;;
27209;SDS011;14721;42.668;23.386;2024-02-21T05:59:01;19.50;;;9.73;;
27209;SDS011;14721;42.668;23.386;2024-02-21T06:01:29;18.07;;;9.20;;
27209;SDS011;14721;42.668;23.386;2024-02-21T06:03:58;22.57;;;10.93;;
27209;SDS011;14721;42.668;23.386;2024-02-21T06:06:23;19.17;;;9.67;;
27209;SDS011;14721;42.668;23.386;2024-02-21T06:08:49;20.10;;;9.87;;
27209;SDS011;14721;42.668;23.386;2024-02-21T06:11:15;24.00;;;11.80;;
27209;SDS011;14721;42.668;23.386;2024-02-21T06:13:41;21.53;;;10.13;;
27209;SDS011;14721;42.668;23.386;2024-02-21T06:16:06;20.43;;;10.20;;
27209;SDS011;14721;42.668;23.386;2024-02-21T06:18:32;20.43;;;11.30;;
27209;SDS011;14721;42.668;23.386;2024-02-21T06:21:00;20.00;;;10.23;;
27209;SDS011;14721;42.668;23.386;2024-02-21T06:23:26;20.83;;;10.47;;
27209;SDS011;14721;42.668;23.386;2024-02-21T06:25:51;20.30;;;11.57;;
27209;SDS011;14721;42.668;23.386;2024-02-21T06:28:17;19.13;;;10.97;;
27209;SDS011;14721;42.668;23.386;2024-02-21T06:30:42;20.20;;;10.47;;
27209;SDS011;14721;42.668;23.386;2024-02-21T06:33:10;22.40;;;11.60;;
27209;SDS011;14721;42.668;23.386;2024-02-21T06:35:36;20.90;;;11.83;;
27209;SDS011;14721;42.668;23.386;2024-02-21T06:38:03;26.27;;;12.13;;
27209;SDS011;14721;42.668;23.386;2024-02-21T06:40:29;26.17;;;13.27;;
27209;SDS011;14721;42.668;23.386;2024-02-21T06:43:03;24.97;;;11.60;;
27209;SDS011;14721;42.668;23.386;2024-02-21T06:45:28;24.67;;;12.00;;
27209;SDS011;14721;42.668;23.386;2024-02-21T06:47:54;26.77;;;12.80;;
27209;SDS011;14721;42.668;23.386;2024-02-21T06:50:20;23.23;;;11.20;;
27209;SDS011;14721;42.668;23.386;2024-02-21T06:52:45;24.97;;;11.23;;
27209;SDS011;14721;42.668;23.386;2024-02-21T06:55:11;24.40;;;12.47;;
27209;SDS011;14721;42.668;23.386;2024-02-21T06:57:39;20.03;;;11.03;;
27209;SDS011;14721;42.668;23.386;2024-02-21T07:00:05;22.13;;;11.73;;
27209;SDS011;14721;42.668;23.386;2024-02-21T07:02:33;26.57;;;12.87;;
27209;SDS011;14721;42.668;23.386;2024-02-21T07:04:59;22.97;;;12.23;;
27209;SDS011;14721;42.668;23.386;2024-02-21T07:07:24;27.43;;;13.97;;
27209;SDS011;14721;42.668;23.386;2024-02-21T07:09:50;25.83;;;12.80;;
27209;SDS011;14721;42.668;23.386;2024-02-21T07:12:16;23.50;;;13.10;;
27209;SDS011;14721;42.668;23.386;2024-02-21T07:14:42;24.43;;;12.97;;
27209;SDS011;14721;42.668;23.386;2024-02-21T07:17:07;28.80;;;13.77;;
27209;SDS011;14721;42.668;23.386;2024-02-21T07:19:33;31.47;;;14.47;;
27209;SDS011;14721;42.668;23.386;2024-02-21T07:22:00;24.87;;;13.00;;
27209;SDS011;14721;42.668;23.386;2024-02-21T07:24:26;30.07;;;14.73;;
27209;SDS011;14721;42.668;23.386;2024-02-21T07:26:51;25.23;;;13.17;;
27209;SDS011;14721;42.668;23.386;2024-02-21T07:29:17;26.43;;;15.07;;
27209;SDS011;14721;42.668;23.386;2024-02-21T07:31:42;27.73;;;13.93;;
27209;SDS011;14721;42.668;23.386;2024-02-21T07:34:08;31.10;;;12.63;;
27209;SDS011;14721;42.668;23.386;2024-02-21T07:36:34;23.67;;;12.07;;
27209;SDS011;14721;42.668;23.386;2024-02-21T07:39:00;23.90;;;12.27;;
27209;SDS011;14721;42.668;23.386;2024-02-21T07:41:26;29.10;;;11.50;;
27209;SDS011;14721;42.668;23.386;2024-02-21T07:43:51;34.50;;;13.20;;
27209;SDS011;14721;42.668;23.386;2024-02-21T07:46:17;25.10;;;12.33;;
27209;SDS011;14721;42.668;23.386;2024-02-21T07:48:45;30.00;;;12.87;;
27209;SDS011;14721;42.668;23.386;2024-02-21T07:51:12;26.10;;;12.20;;
27209;SDS011;14721;42.668;23.386;2024-02-21T07:53:40;31.50;;;13.57;;
27209;SDS011;14721;42.668;23.386;2024-02-21T07:56:13;23.73;;;11.77;;
27209;SDS011;14721;42.668;23.386;2024-02-21T07:58:39;30.27;;;13.33;;
27209;SDS011;14721;42.668;23.386;2024-02-21T08:01:05;25.27;;;11.93;;
27209;SDS011;14721;42.668;23.386;2024-02-21T08:03:31;22.33;;;9.90;;
27209;SDS011;14721;42.668;23.386;2024-02-21T08:05:56;20.10;;;10.33;;
27209;SDS011;14721;42.668;23.386;2024-02-21T08:08:22;24.03;;;10.67;;
27209;SDS011;14721;42.668;23.386;2024-02-21T08:10:48;18.93;;;10.17;;
27209;SDS011;14721;42.668;23.386;2024-02-21T08:13:14;19.97;;;9.40;;
27209;SDS011;14721;42.668;23.386;2024-02-21T08:15:39;20.23;;;9.50;;
27209;SDS011;14721;42.668;23.386;2024-02-21T08:18:07;19.50;;;9.83;;
27209;SDS011;14721;42.668;23.386;2024-02-21T08:20:33;17.43;;;10.03;;
27209;SDS011;14721;42.668;23.386;2024-02-21T08:22:58;21.33;;;10.30;;
27209;SDS011;14721;42.668;23.386;2024-02-21T08:25:24;18.30;;;9.63;;
27209;SDS011;14721;42.668;23.386;2024-02-21T08:27:55;16.63;;;9.23;;
27209;SDS011;14721;42.668;23.386;2024-02-21T08:30:23;17.30;;;8.93;;
27209;SDS011;14721;42.668;23.386;2024-02-21T08:32:51;17.60;;;10.13;;
27209;SDS011;14721;42.668;23.386;2024-02-21T08:35:16;22.50;;;10.43;;
27209;SDS011;14721;42.668;23.386;2024-02-21T08:37:47;24.57;;;9.47;;
27209;SDS011;14721;42.668;23.386;2024-02-21T08:40:13;17.03;;;8.57;;
27209;SDS011;14721;42.668;23.386;2024-02-21T08:42:54;18.17;;;9.37;;
27209;SDS011;14721;42.668;23.386;2024-02-21T08:45:19;20.90;;;9.50;;
27209;SDS011;14721;42.668;23.386;2024-02-21T08:47:45;16.90;;;8.80;;
27209;SDS011;14721;42.668;23.386;2024-02-21T08:50:11;15.37;;;8.77;;
27209;SDS011;14721;42.668;23.386;2024-02-21T08:52:39;15.20;;;7.63;;
27209;SDS011;14721;42.668;23.386;2024-02-21T08:55:05;18.17;;;9.30;;
27209;SDS011;14721;42.668;23.386;2024-02-21T08:57:32;18.63;;;8.73;;
27209;SDS011;14721;42.668;23.386;2024-02-21T09:00:03;19.40;;;8.53;;
27209;SDS011;14721;42.668;23.386;2024-02-21T09:02:55;14.63;;;8.20;;
27209;SDS011;14721;42.668;23.386;2024-02-21T09:05:25;15.70;;;8.03;;
27209;SDS011;14721;42.668;23.386;2024-02-21T09:07:51;15.73;;;7.77;;
27209;SDS011;14721;42.668;23.386;2024-02-21T09:10:20;16.10;;;7.93;;
27209;SDS011;14721;42.668;23.386;2024-02-21T09:12:46;16.50;;;7.30;;
27209;SDS011;14721;42.668;23.386;2024-02-21T09:15:12;20.37;;;9.30;;
27209;SDS011;14721;42.668;23.386;2024-02-21T09:17:38;16.90;;;7.60;;
27209;SDS011;14721;42.668;23.386;2024-02-21T09:20:04;13.87;;;6.73;;
27209;SDS011;14721;42.668;23.386;2024-02-21T09:22:31;15.33;;;6.13;;
27209;SDS011;14721;42.668;23.386;2024-02-21T09:24:59;15.67;;;7.80;;
27209;SDS011;14721;42.668;23.386;2024-02-21T09:27:28;22.17;;;8.00;;
27209;SDS011;14721;42.668;23.386;2024-02-21T09:29:53;14.47;;;8.03;;
27209;SDS011;14721;42.668;23.386;2024-02-21T09:32:22;14.30;;;7.33;;
27209;SDS011;14721;42.668;23.386;2024-02-21T09:34:53;18.03;;;8.90;;
27209;SDS011;14721;42.668;23.386;2024-02-21T09:37:19;13.30;;;7.73;;
27209;SDS011;14721;42.668;23.386;2024-02-21T09:39:47;12.43;;;7.70;;
27209;SDS011;14721;42.668;23.386;2024-02-21T09:42:13;15.10;;;7.80;;
27209;SDS011;14721;42.668;23.386;2024-02-21T09:44:43;16.17;;;7.83;;
27209;SDS011;14721;42.668;23.386;2024-02-21T09:50:19;16.20;;;8.50;;
27209;SDS011;14721;42.668;23.386;2024-02-21T09:53:12;17.20;;;7.97;;
27209;SDS011;14721;42.668;23.386;2024-02-21T09:55:39;15.30;;;8.43;;
27209;SDS011;14721;42.668;23.386;2024-02-21T09:58:07;17.33;;;8.27;;
27209;SDS011;14721;42.668;23.386;2024-02-21T10:00:34;17.77;;;7.57;;
27209;SDS011;14721;42.668;23.386;2024-02-21T10:03:03;16.17;;;7.53;;
27209;SDS011;14721;42.668;23.386;2024-02-21T10:05:35;17.93;;;8.00;;
27209;SDS011;14721;42.668;23.386;2024-02-21T10:08:02;14.30;;;8.10;;
27209;SDS011;14721;42.668;23.386;2024-02-21T10:10:40;16.87;;;8.17;;
27209;SDS011;14721;42.668;23.386;2024-02-21T10:13:08;15.93;;;7.10;;
27209;SDS011;14721;42.668;23.386;2024-02-21T10:15:37;12.27;;;7.13;;
27209;SDS011;14721;42.668;23.386;2024-02-21T10:18:19;14.67;;;7.17;;
27209;SDS011;14721;42.668;23.386;2024-02-21T10:20:59;9.10;;;5.43;;
27209;SDS011;14721;42.668;23.386;2024-02-21T10:23:27;12.77;;;6.37;;
27209;SDS011;14721;42.668;23.386;2024-02-21T10:25:53;11.13;;;6.37;;
27209;SDS011;14721;42.668;23.386;2024-02-21T10:28:21;13.50;;;7.20;;
27209;SDS011;14721;42.668;23.386;2024-02-21T10:30:49;12.63;;;6.97;;
27209;SDS011;14721;42.668;23.386;2024-02-21T10:33:19;12.43;;;6.07;;
27209;SDS011;14721;42.668;23.386;2024-02-21T10:35:50;11.87;;;6.00;;
27209;SDS011;14721;42.668;23.386;2024-02-21T10:38:16;9.13;;;5.27;;
27209;SDS011;14721;42.668;23.386;2024-02-21T10:40:44;9.33;;;5.30;;
27209;SDS011;14721;42.668;23.386;2024-02-21T10:43:12;12.70;;;6.07;;
27209;SDS011;14721;42.668;23.386;2024-02-21T10:45:41;9.63;;;5.20;;
27209;SDS011;14721;42.668;23.386;2024-02-21T10:48:10;9.97;;;5.00;;
27209;SDS011;14721;42.668;23.386;2024-02-21T10:59:15;11.70;;;5.77;;
27209;SDS011;14721;42.668;23.386;2024-02-21T11:01:43;10.03;;;5.60;;
27209;SDS011;14721;42.668;23.386;2024-02-21T11:04:09;9.27;;;5.53;;
27209;SDS011;14721;42.668;23.386;2024-02-21T11:06:37;10.23;;;5.40;;
27209;SDS011;14721;42.668;23.386;2024-02-21T11:09:07;13.23;;;6.33;;
27209;SDS011;14721;42.668;23.386;2024-02-21T11:11:34;10.67;;;5.70;;
27209;SDS011;14721;42.668;23.386;2024-02-21T11:14:09;12.10;;;5.97;;
27209;SDS011;14721;42.668;23.386;2024-02-21T11:16:45;10.67;;;6.07;;
27209;SDS011;14721;42.668;23.386;2024-02-21T11:19:19;9.40;;;4.67;;
27209;SDS011;14721;42.668;23.386;2024-02-21T11:21:49;13.40;;;5.53;;
27209;SDS011;14721;42.668;23.386;2024-02-21T11:24:28;9.37;;;4.37;;
27209;SDS011;14721;42.668;23.386;2024-02-21T11:27:07;8.37;;;4.33;;
27209;SDS011;14721;42.668;23.386;2024-02-21T11:29:40;8.97;;;4.10;;
27209;SDS011;14721;42.668;23.386;2024-02-21T11:32:14;7.83;;;3.10;;
27209;SDS011;14721;42.668;23.386;2024-02-21T11:34:40;6.50;;;3.33;;
27209;SDS011;14721;42.668;23.386;2024-02-21T11:37:15;6.20;;;3.30;;
27209;SDS011;14721;42.668;23.386;2024-02-21T11:39:41;4.97;;;2.83;;
27209;SDS011;14721;42.668;23.386;2024-02-21T11:42:07;5.50;;;3.20;;
27209;SDS011;14721;42.668;23.386;2024-02-21T11:44:34;6.40;;;3.27;;
27209;SDS011;14721;42.668;23.386;2024-02-21T11:47:03;6.30;;;2.87;;
27209;SDS011;14721;42.668;23.386;2024-02-21T11:49:35;5.77;;;3.07;;
27209;SDS011;14721;42.668;23.386;2024-02-21T11:52:03;5.83;;;3.17;;
27209;SDS011;14721;42.668;23.386;2024-02-21T11:54:33;6.80;;;3.07;;
27209;SDS011;14721;42.668;23.386;2024-02-21T11:56:59;5.33;;;3.33;;
27209;SDS011;14721;42.668;23.386;2024-02-21T11:59:25;6.97;;;3.27;;
27209;SDS011;14721;42.668;23.386;2024-02-21T12:01:52;5.77;;;3.30;;
27209;SDS011;14721;42.668;23.386;2024-02-21T12:04:21;4.60;;;2.67;;
27209;SDS011;14721;42.668;23.386;2024-02-21T12:06:48;7.33;;;3.57;;
27209;SDS011;14721;42.668;23.386;2024-02-21T12:09:15;6.83;;;3.73;;
27209;SDS011;14721;42.668;23.386;2024-02-21T12:11:44;6.17;;;3.30;;
27209;SDS011;14721;42.668;23.386;2024-02-21T12:14:10;3.80;;;2.60;;
27209;SDS011;14721;42.668;23.386;2024-02-21T12:16:36;6.30;;;3.20;;
27209;SDS011;14721;42.668;23.386;2024-02-21T12:19:02;5.13;;;2.67;;
27209;SDS011;14721;42.668;23.386;2024-02-21T12:21:32;4.67;;;2.70;;
27209;SDS011;14721;42.668;23.386;2024-02-21T12:24:14;6.63;;;3.60;;
27209;SDS011;14721;42.668;23.386;2024-02-21T12:26:41;6.03;;;3.50;;
27209;SDS011;14721;42.668;23.386;2024-02-21T12:29:06;5.93;;;3.57;;
27209;SDS011;14721;42.668;23.386;2024-02-21T12:31:38;8.77;;;4.60;;
27209;SDS011;14721;42.668;23.386;2024-02-21T12:34:04;8.37;;;4.20;;
27209;SDS011;14721;42.668;23.386;2024-02-21T12:36:30;7.23;;;4.17;;
27209;SDS011;14721;42.668;23.386;2024-02-21T12:38:56;5.73;;;3.10;;
27209;SDS011;14721;42.668;23.386;2024-02-21T12:41:22;4.43;;;2.77;;
27209;SDS011;14721;42.668;23.386;2024-02-21T12:43:47;5.90;;;3.87;;
27209;SDS011;14721;42.668;23.386;2024-02-21T12:46:15;6.47;;;3.53;;
27209;SDS011;14721;42.668;23.386;2024-02-21T12:48:43;6.53;;;3.80;;
27209;SDS011;14721;42.668;23.386;2024-02-21T12:51:21;9.77;;;3.90;;
27209;SDS011;14721;42.668;23.386;2024-02-21T12:53:49;7.50;;;3.10;;
27209;SDS011;14721;42.668;23.386;2024-02-21T12:56:17;4.57;;;2.60;;
27209;SDS011;14721;42.668;23.386;2024-02-21T12:58:43;5.53;;;3.30;;
27209;SDS011;14721;42.668;23.386;2024-02-21T13:01:40;5.50;;;3.03;;
27209;SDS011;14721;42.668;23.386;2024-02-21T13:04:19;5.37;;;3.07;;
27209;SDS011;14721;42.668;23.386;2024-02-21T13:06:48;7.10;;;3.33;;
27209;SDS011;14721;42.668;23.386;2024-02-21T13:09:14;6.63;;;3.70;;
27209;SDS011;14721;42.668;23.386;2024-02-21T13:11:39;8.77;;;4.77;;
27209;SDS011;14721;42.668;23.386;2024-02-21T13:14:06;8.17;;;4.87;;
27209;SDS011;14721;42.668;23.386;2024-02-21T13:16:32;8.60;;;4.60;;
27209;SDS011;14721;42.668;23.386;2024-02-21T13:19:13;9.47;;;4.83;;
27209;SDS011;14721;42.668;23.386;2024-02-21T13:21:49;12.30;;;4.53;;
27209;SDS011;14721;42.668;23.386;2024-02-21T13:24:17;7.30;;;4.07;;
27209;SDS011;14721;42.668;23.386;2024-02-21T13:26:57;12.37;;;4.83;;
27209;SDS011;14721;42.668;23.386;2024-02-21T13:29:25;9.63;;;4.30;;
27209;SDS011;14721;42.668;23.386;2024-02-21T13:31:51;11.27;;;4.73;;
27209;SDS011;14721;42.668;23.386;2024-02-21T13:34:35;9.37;;;4.77;;
27209;SDS011;14721;42.668;23.386;2024-02-21T13:37:00;7.23;;;4.67;;
27209;SDS011;14721;42.668;23.386;2024-02-21T13:39:29;10.10;;;4.97;;
27209;SDS011;14721;42.668;23.386;2024-02-21T13:41:55;9.63;;;4.23;;
27209;SDS011;14721;42.668;23.386;2024-02-21T13:44:36;7.00;;;4.43;;
27209;SDS011;14721;42.668;23.386;2024-02-21T13:47:05;8.00;;;4.43;;
27209;SDS011;14721;42.668;23.386;2024-02-21T13:49:33;9.83;;;4.20;;
27209;SDS011;14721;42.668;23.386;2024-02-21T13:52:11;7.33;;;3.83;;
27209;SDS011;14721;42.668;23.386;2024-02-21T13:54:39;6.67;;;3.77;;
27209;SDS011;14721;42.668;23.386;2024-02-21T13:57:06;7.90;;;4.77;;
27209;SDS011;14721;42.668;23.386;2024-02-21T13:59:32;9.70;;;4.37;;
27209;SDS011;14721;42.668;23.386;2024-02-21T14:02:07;10.07;;;4.23;;
27209;SDS011;14721;42.668;23.386;2024-02-21T14:04:38;7.97;;;4.53;;
27209;SDS011;14721;42.668;23.386;2024-02-21T14:07:04;8.83;;;4.43;;
27209;SDS011;14721;42.668;23.386;2024-02-21T14:09:32;7.87;;;4.47;;
27209;SDS011;14721;42.668;23.386;2024-02-21T14:11:58;10.77;;;5.23;;
27209;SDS011;14721;42.668;23.386;2024-02-21T14:14:26;12.43;;;5.40;;
27209;SDS011;14721;42.668;23.386;2024-02-21T14:16:51;9.57;;;4.67;;
27209;SDS011;14721;42.668;23.386;2024-02-21T14:19:17;18.70;;;4.90;;
27209;SDS011;14721;42.668;23.386;2024-02-21T14:21:46;9.23;;;4.63;;
27209;SDS011;14721;42.668;23.386;2024-02-21T14:24:11;9.77;;;3.83;;
27209;SDS011;14721;42.668;23.386;2024-02-21T14:26:37;8.10;;;4.10;;
27209;SDS011;14721;42.668;23.386;2024-02-21T14:29:10;5.20;;;2.93;;
27209;SDS011;14721;42.668;23.386;2024-02-21T14:31:36;7.20;;;4.53;;
27209;SDS011;14721;42.668;23.386;2024-02-21T14:34:04;8.97;;;4.03;;
27209;SDS011;14721;42.668;23.386;2024-02-21T14:36:29;6.20;;;3.63;;
27209;SDS011;14721;42.668;23.386;2024-02-21T14:38:58;5.37;;;3.33;;
27209;SDS011;14721;42.668;23.386;2024-02-21T14:41:24;8.60;;;4.33;;
27209;SDS011;14721;42.668;23.386;2024-02-21T14:43:49;11.67;;;4.70;;
27209;SDS011;14721;42.668;23.386;2024-02-21T14:46:16;7.80;;;3.77;;
27209;SDS011;14721;42.668;23.386;2024-02-21T14:48:42;8.77;;;4.20;;